sensor_id;sensor_type;location;lat;lon;timestamp;pressure;altitude;pressure_sealevel;temperature;humidity
61786;BME280;47692;53.714;11.372;2023-01-29T00:01:07;102020.28;;;0.37;100.00
61786;BME280;47692;53.714;11.372;2023-01-29T00:03:33;102029.69;;;0.36;100.00
61786;BME280;47692;53.714;11.372;2023-01-29T00:05:59;102023.66;;;0.36;100.00
61786;BME280;47692;53.714;11.372;2023-01-29T00:08:29;102026.44;;;0.40;100.00
61786;BME280;47692;53.714;11.372;2023-01-29T00:11:00;102029.88;;;0.41;100.00
61786;BME280;47692;53.714;11.372;2023-01-29T00:13:25;102027.28;;;0.41;100.00
61786;BME280;47692;53.714;11.372;2023-01-29T00:15:55;102034.13;;;0.40;100.00
61786;BME280;47692;53.714;11.372;2023-01-29T00:18:21;102035.91;;;0.41;100.00
61786;BME280;47692;53.714;11.372;2023-01-29T00:20:47;102033.44;;;0.44;100.00
61786;BME280;47692;53.714;11.372;2023-01-29T00:23:12;102036.06;;;0.46;100.00
61786;BME280;47692;53.714;11.372;2023-01-29T00:25:37;102031.69;;;0.43;100.00
61786;BME280;47692;53.714;11.372;2023-01-29T00:28:03;102031.06;;;0.49;100.00
61786;BME280;47692;53.714;11.372;2023-01-29T00:30:29;102026.78;;;0.50;100.00
61786;BME280;47692;53.714;11.372;2023-01-29T00:32:54;102032.81;;;0.50;100.00
61786;BME280;47692;53.714;11.372;2023-01-29T00:35:19;102028.59;;;0.52;100.00
61786;BME280;47692;53.714;11.372;2023-01-29T00:37:45;102026.78;;;0.50;100.00
61786;BME280;47692;53.714;11.372;2023-01-29T00:40:10;102032.91;;;0.53;100.00
61786;BME280;47692;53.714;11.372;2023-01-29T00:42:36;102026.97;;;0.54;100.00
61786;BME280;47692;53.714;11.372;2023-01-29T00:45:20;102019.41;;;0.57;100.00
61786;BME280;47692;53.714;11.372;2023-01-29T00:47:46;102010.84;;;0.58;100.00
61786;BME280;47692;53.714;11.372;2023-01-29T00:50:12;102001.41;;;0.57;100.00
61786;BME280;47692;53.714;11.372;2023-01-29T00:52:38;101993.81;;;0.60;100.00
61786;BME280;47692;53.714;11.372;2023-01-29T00:55:05;101993.00;;;0.61;100.00
61786;BME280;47692;53.714;11.372;2023-01-29T00:57:33;101990.53;;;0.64;100.00
61786;BME280;47692;53.714;11.372;2023-01-29T00:59:58;101990.66;;;0.68;100.00
61786;BME280;47692;53.714;11.372;2023-01-29T01:02:24;101980.25;;;0.64;100.00
61786;BME280;47692;53.714;11.372;2023-01-29T01:05:10;101989.03;;;0.70;100.00
61786;BME280;47692;53.714;11.372;2023-01-29T01:07:42;101990.94;;;0.75;100.00
61786;BME280;47692;53.714;11.372;2023-01-29T01:10:19;101983.94;;;0.71;100.00
61786;BME280;47692;53.714;11.372;2023-01-29T01:12:46;101996.13;;;0.77;100.00
61786;BME280;47692;53.714;11.372;2023-01-29T01:15:12;101985.75;;;0.74;100.00
61786;BME280;47692;53.714;11.372;2023-01-29T01:17:37;101991.94;;;0.79;100.00
61786;BME280;47692;53.714;11.372;2023-01-29T01:20:03;102003.97;;;0.80;100.00
61786;BME280;47692;53.714;11.372;2023-01-29T01:22:29;102001.50;;;0.83;100.00
61786;BME280;47692;53.714;11.372;2023-01-29T01:24:55;101990.53;;;0.87;100.00
61786;BME280;47692;53.714;11.372;2023-01-29T01:27:20;101986.31;;;0.89;100.00
61786;BME280;47692;53.714;11.372;2023-01-29T01:29:46;101976.16;;;0.92;100.00
61786;BME280;47692;53.714;11.372;2023-01-29T01:32:12;101975.22;;;0.90;100.00
61786;BME280;47692;53.714;11.372;2023-01-29T01:34:37;101979.41;;;0.88;100.00
61786;BME280;47692;53.714;11.372;2023-01-29T01:37:03;101982.22;;;0.94;100.00
61786;BME280;47692;53.714;11.372;2023-01-29T01:39:28;101981.34;;;0.94;100.00
61786;BME280;47692;53.714;11.372;2023-01-29T01:41:54;101981.28;;;0.92;100.00
61786;BME280;47692;53.714;11.372;2023-01-29T01:44:54;101982.22;;;0.94;100.00
61786;BME280;47692;53.714;11.372;2023-01-29T01:47:42;101984.69;;;0.91;100.00
61786;BME280;47692;53.714;11.372;2023-01-29T01:50:18;101991.69;;;0.95;100.00
61786;BME280;47692;53.714;11.372;2023-01-29T01:52:49;101990.06;;;0.98;100.00
61786;BME280;47692;53.714;11.372;2023-01-29T01:55:20;101988.28;;;0.96;100.00
61786;BME280;47692;53.714;11.372;2023-01-29T01:57:52;101990.00;;;0.96;100.00
61786;BME280;47692;53.714;11.372;2023-01-29T02:00:20;101998.59;;;0.96;100.00
61786;BME280;47692;53.714;11.372;2023-01-29T02:02:47;101999.47;;;0.97;100.00
61786;BME280;47692;53.714;11.372;2023-01-29T02:05:32;101992.72;;;1.01;100.00
61786;BME280;47692;53.714;11.372;2023-01-29T02:08:34;101979.06;;;1.02;100.00
61786;BME280;47692;53.714;11.372;2023-01-29T02:11:21;101978.25;;;1.03;100.00
61786;BME280;47692;53.714;11.372;2023-01-29T02:13:46;101983.50;;;1.06;100.00
61786;BME280;47692;53.714;11.372;2023-01-29T02:16:18;101979.22;;;1.06;100.00
61786;BME280;47692;53.714;11.372;2023-01-29T02:18:44;101964.66;;;1.07;100.00
61786;BME280;47692;53.714;11.372;2023-01-29T02:24:24;101964.66;;;1.07;100.00
61786;BME280;47692;53.714;11.372;2023-01-29T02:27:16;101962.16;;;1.08;100.00
61786;BME280;47692;53.714;11.372;2023-01-29T02:32:37;101961.22;;;1.06;100.00
61786;BME280;47692;53.714;11.372;2023-01-29T02:35:19;101961.28;;;1.08;100.00
61786;BME280;47692;53.714;11.372;2023-01-29T02:40:36;101958.69;;;1.08;100.00
61786;BME280;47692;53.714;11.372;2023-01-29T02:54:03;101958.69;;;1.08;100.00
61786;BME280;47692;53.714;11.372;2023-01-29T02:56:40;101949.34;;;1.10;100.00
61786;BME280;47692;53.714;11.372;2023-01-29T02:59:20;101952.09;;;1.15;100.00
61786;BME280;47692;53.714;11.372;2023-01-29T03:01:50;101939.88;;;1.09;100.00
61786;BME280;47692;53.714;11.372;2023-01-29T03:04:21;101927.16;;;1.12;100.00
61786;BME280;47692;53.714;11.372;2023-01-29T03:06:57;101919.22;;;1.06;100.00
61786;BME280;47692;53.714;11.372;2023-01-29T03:09:38;101920.94;;;1.07;100.00
61786;BME280;47692;53.714;11.372;2023-01-29T03:12:16;101907.47;;;1.14;100.00
61786;BME280;47692;53.714;11.372;2023-01-29T03:14:58;101904.81;;;1.11;100.00
61786;BME280;47692;53.714;11.372;2023-01-29T03:17:46;101897.09;;;1.11;100.00
61786;BME280;47692;53.714;11.372;2023-01-29T03:20:16;101898.06;;;1.15;100.00
61786;BME280;47692;53.714;11.372;2023-01-29T03:22:45;101873.13;;;1.12;100.00
61786;BME280;47692;53.714;11.372;2023-01-29T03:25:13;101879.16;;;1.14;100.00
61786;BME280;47692;53.714;11.372;2023-01-29T03:28:00;101878.31;;;1.13;100.00
61786;BME280;47692;53.714;11.372;2023-01-29T03:30:50;101865.28;;;1.09;100.00
61786;BME280;47692;53.714;11.372;2023-01-29T03:33:41;101870.63;;;1.15;100.00
61786;BME280;47692;53.714;11.372;2023-01-29T03:36:13;101870.63;;;1.15;100.00
61786;BME280;47692;53.714;11.372;2023-01-29T03:38:41;101885.97;;;1.12;100.00
61786;BME280;47692;53.714;11.372;2023-01-29T03:43:54;101876.59;;;1.14;100.00
61786;BME280;47692;53.714;11.372;2023-01-29T03:57:12;101875.69;;;1.12;100.00
61786;BME280;47692;53.714;11.372;2023-01-29T04:02:15;101875.56;;;1.09;100.00
61786;BME280;47692;53.714;11.372;2023-01-29T04:04:52;101886.06;;;1.15;100.00
61786;BME280;47692;53.714;11.372;2023-01-29T04:07:20;101882.78;;;1.19;100.00
61786;BME280;47692;53.714;11.372;2023-01-29T04:09:58;101875.81;;;1.17;100.00
61786;BME280;47692;53.714;11.372;2023-01-29T04:12:28;101872.59;;;1.22;100.00
61786;BME280;47692;53.714;11.372;2023-01-29T04:14:57;101872.59;;;1.22;100.00
61786;BME280;47692;53.714;11.372;2023-01-29T04:17:30;101877.63;;;1.19;100.00
61786;BME280;47692;53.714;11.372;2023-01-29T04:19:59;101867.41;;;1.21;100.00
61786;BME280;47692;53.714;11.372;2023-01-29T04:22:36;101867.47;;;1.22;100.00
61786;BME280;47692;53.714;11.372;2023-01-29T04:25:07;101875.19;;;1.22;100.00
61786;BME280;47692;53.714;11.372;2023-01-29T04:33:41;101882.91;;;1.22;100.00
61786;BME280;47692;53.714;11.372;2023-01-29T04:41:33;101891.66;;;1.27;100.00
61786;BME280;47692;53.714;11.372;2023-01-29T04:49:41;101884.88;;;1.29;100.00
61786;BME280;47692;53.714;11.372;2023-01-29T04:52:08;101877.97;;;1.28;100.00
61786;BME280;47692;53.714;11.372;2023-01-29T04:57:41;101873.75;;;1.31;100.00
61786;BME280;47692;53.714;11.372;2023-01-29T05:02:38;101879.94;;;1.36;100.00
61786;BME280;47692;53.714;11.372;2023-01-29T05:05:04;101874.81;;;1.37;100.00
61786;BME280;47692;53.714;11.372;2023-01-29T05:07:31;101876.41;;;1.34;100.00
61786;BME280;47692;53.714;11.372;2023-01-29T05:09:58;101872.34;;;1.40;100.00
61786;BME280;47692;53.714;11.372;2023-01-29T05:12:25;101863.78;;;1.41;100.00
61786;BME280;47692;53.714;11.372;2023-01-29T05:14:53;101859.63;;;1.45;100.00
61786;BME280;47692;53.714;11.372;2023-01-29T05:17:20;101853.53;;;1.43;100.00
61786;BME280;47692;53.714;11.372;2023-01-29T05:19:46;101865.72;;;1.47;100.00
61786;BME280;47692;53.714;11.372;2023-01-29T05:22:14;101857.25;;;1.51;100.00
61786;BME280;47692;53.714;11.372;2023-01-29T05:24:40;101857.25;;;1.51;100.00
61786;BME280;47692;53.714;11.372;2023-01-29T05:27:05;101865.19;;;1.57;100.00
61786;BME280;47692;53.714;11.372;2023-01-29T05:29:49;101864.41;;;1.60;100.00
61786;BME280;47692;53.714;11.372;2023-01-29T05:32:15;101853.25;;;1.59;100.00
61786;BME280;47692;53.714;11.372;2023-01-29T05:34:41;101849.84;;;1.60;100.00
61786;BME280;47692;53.714;11.372;2023-01-29T05:37:07;101855.19;;;1.67;100.00
61786;BME280;47692;53.714;11.372;2023-01-29T05:39:32;101850.91;;;1.67;100.00
61786;BME280;47692;53.714;11.372;2023-01-29T05:41:58;101854.34;;;1.68;100.00
61786;BME280;47692;53.714;11.372;2023-01-29T05:44:24;101838.91;;;1.68;100.00
61786;BME280;47692;53.714;11.372;2023-01-29T05:46:49;101844.19;;;1.72;100.00
61786;BME280;47692;53.714;11.372;2023-01-29T05:49:16;101834.66;;;1.68;100.00
61786;BME280;47692;53.714;11.372;2023-01-29T05:51:42;101839.75;;;1.67;100.00
61786;BME280;47692;53.714;11.372;2023-01-29T05:54:10;101838.22;;;1.73;100.00
61786;BME280;47692;53.714;11.372;2023-01-29T05:56:36;101831.34;;;1.72;100.00
61786;BME280;47692;53.714;11.372;2023-01-29T05:59:01;101820.25;;;1.75;100.00
61786;BME280;47692;53.714;11.372;2023-01-29T06:01:27;101829.53;;;1.70;100.00
61786;BME280;47692;53.714;11.372;2023-01-29T06:03:52;101821.03;;;1.72;100.00
61786;BME280;47692;53.714;11.372;2023-01-29T06:06:17;101833.88;;;1.71;100.00
61786;BME280;47692;53.714;11.372;2023-01-29T06:08:43;101815.84;;;1.71;100.00
61786;BME280;47692;53.714;11.372;2023-01-29T06:11:10;101823.59;;;1.72;100.00
61786;BME280;47692;53.714;11.372;2023-01-29T06:13:36;101825.31;;;1.72;100.00
61786;BME280;47692;53.714;11.372;2023-01-29T06:16:05;101829.66;;;1.73;100.00
61786;BME280;47692;53.714;11.372;2023-01-29T06:18:31;101834.78;;;1.73;100.00
61786;BME280;47692;53.714;11.372;2023-01-29T06:21:01;101834.69;;;1.70;100.00
61786;BME280;47692;53.714;11.372;2023-01-29T06:23:26;101828.78;;;1.74;100.00
61786;BME280;47692;53.714;11.372;2023-01-29T06:25:52;101828.78;;;1.74;100.00
61786;BME280;47692;53.714;11.372;2023-01-29T06:28:17;101824.50;;;1.73;100.00
61786;BME280;47692;53.714;11.372;2023-01-29T06:30:42;101807.22;;;1.70;100.00
61786;BME280;47692;53.714;11.372;2023-01-29T06:33:08;101784.75;;;1.65;100.00
61786;BME280;47692;53.714;11.372;2023-01-29T06:35:33;101788.06;;;1.60;100.00
61786;BME280;47692;53.714;11.372;2023-01-29T06:37:58;101793.28;;;1.64;100.00
61786;BME280;47692;53.714;11.372;2023-01-29T06:40:24;101794.13;;;1.63;100.00
61786;BME280;47692;53.714;11.372;2023-01-29T06:42:49;101780.22;;;1.57;100.00
61786;BME280;47692;53.714;11.372;2023-01-29T06:45:14;101775.13;;;1.59;100.00
61786;BME280;47692;53.714;11.372;2023-01-29T06:47:40;101770.75;;;1.56;100.00
61786;BME280;47692;53.714;11.372;2023-01-29T06:50:05;101770.69;;;1.53;100.00
61786;BME280;47692;53.714;11.372;2023-01-29T06:52:31;101763.03;;;1.56;100.00
61786;BME280;47692;53.714;11.372;2023-01-29T06:54:56;101758.63;;;1.52;100.00
61786;BME280;47692;53.714;11.372;2023-01-29T06:57:21;101771.66;;;1.57;100.00
61786;BME280;47692;53.714;11.372;2023-01-29T06:59:47;101779.41;;;1.58;100.00
61786;BME280;47692;53.714;11.372;2023-01-29T07:02:12;101787.97;;;1.57;100.00
61786;BME280;47692;53.714;11.372;2023-01-29T07:04:38;101806.09;;;1.60;100.00
61786;BME280;47692;53.714;11.372;2023-01-29T07:07:05;101801.72;;;1.58;100.00
61786;BME280;47692;53.714;11.372;2023-01-29T07:09:36;101791.34;;;1.56;100.00
61786;BME280;47692;53.714;11.372;2023-01-29T07:12:02;101783.69;;;1.58;100.00
61786;BME280;47692;53.714;11.372;2023-01-29T07:14:28;101777.66;;;1.57;100.00
61786;BME280;47692;53.714;11.372;2023-01-29T07:16:54;101761.34;;;1.57;100.00
61786;BME280;47692;53.714;11.372;2023-01-29T07:19:19;101761.34;;;1.57;100.00
61786;BME280;47692;53.714;11.372;2023-01-29T07:21:44;101757.00;;;1.54;100.00
61786;BME280;47692;53.714;11.372;2023-01-29T07:24:09;101773.28;;;1.55;100.00
61786;BME280;47692;53.714;11.372;2023-01-29T07:26:35;101770.75;;;1.56;100.00
61786;BME280;47692;53.714;11.372;2023-01-29T07:29:00;101772.44;;;1.54;100.00
61786;BME280;47692;53.714;11.372;2023-01-29T07:31:25;101776.03;;;1.59;100.00
61786;BME280;47692;53.714;11.372;2023-01-29T07:33:51;101781.22;;;1.61;100.00
61786;BME280;47692;53.714;11.372;2023-01-29T07:36:16;101772.66;;;1.62;100.00
61786;BME280;47692;53.714;11.372;2023-01-29T07:38:41;101776.03;;;1.59;100.00
61786;BME280;47692;53.714;11.372;2023-01-29T07:41:08;101769.31;;;1.65;100.00
61786;BME280;47692;53.714;11.372;2023-01-29T07:43:35;101760.66;;;1.63;100.00
61786;BME280;47692;53.714;11.372;2023-01-29T07:46:02;101758.19;;;1.66;100.00
61786;BME280;47692;53.714;11.372;2023-01-29T07:48:28;101770.03;;;1.60;100.00
61786;BME280;47692;53.714;11.372;2023-01-29T07:50:56;101776.09;;;1.63;100.00
61786;BME280;47692;53.714;11.372;2023-01-29T07:53:23;101771.84;;;1.63;100.00
61786;BME280;47692;53.714;11.372;2023-01-29T07:55:49;101759.09;;;1.68;100.00
61786;BME280;47692;53.714;11.372;2023-01-29T07:58:14;101745.22;;;1.63;100.00
61786;BME280;47692;53.714;11.372;2023-01-29T08:00:40;101749.47;;;1.60;100.00
61786;BME280;47692;53.714;11.372;2023-01-29T08:03:11;101753.84;;;1.65;100.00
61786;BME280;47692;53.714;11.372;2023-01-29T08:05:36;101748.72;;;1.65;100.00
61786;BME280;47692;53.714;11.372;2023-01-29T08:08:02;101739.28;;;1.65;100.00
61786;BME280;47692;53.714;11.372;2023-01-29T08:10:28;101738.50;;;1.68;100.00
61786;BME280;47692;53.714;11.372;2023-01-29T08:12:55;101728.28;;;1.71;100.00
61786;BME280;47692;53.714;11.372;2023-01-29T08:15:21;101735.19;;;1.72;100.00
61786;BME280;47692;53.714;11.372;2023-01-29T08:17:46;101745.69;;;1.78;100.00
61786;BME280;47692;53.714;11.372;2023-01-29T08:20:11;101754.31;;;1.80;100.00
61786;BME280;47692;53.714;11.372;2023-01-29T08:22:37;101752.59;;;1.79;100.00
61786;BME280;47692;53.714;11.372;2023-01-29T08:25:02;101759.56;;;1.83;100.00
61786;BME280;47692;53.714;11.372;2023-01-29T08:27:27;101751.84;;;1.83;100.00
61786;BME280;47692;53.714;11.372;2023-01-29T08:29:53;101741.56;;;1.85;100.00
61786;BME280;47692;53.714;11.372;2023-01-29T08:32:18;101741.44;;;1.80;100.00
61786;BME280;47692;53.714;11.372;2023-01-29T08:34:43;101755.28;;;1.84;100.00
61786;BME280;47692;53.714;11.372;2023-01-29T08:37:09;101758.78;;;1.86;100.00
61786;BME280;47692;53.714;11.372;2023-01-29T08:39:34;101753.00;;;1.93;100.00
61786;BME280;47692;53.714;11.372;2023-01-29T08:41:59;101748.53;;;1.87;100.00
61786;BME280;47692;53.714;11.372;2023-01-29T08:44:25;101742.53;;;1.88;100.00
61786;BME280;47692;53.714;11.372;2023-01-29T08:46:50;101740.59;;;1.81;100.00
61786;BME280;47692;53.714;11.372;2023-01-29T08:49:15;101748.25;;;1.78;100.00
61786;BME280;47692;53.714;11.372;2023-01-29T08:51:40;101756.00;;;1.78;100.00
61786;BME280;47692;53.714;11.372;2023-01-29T08:54:06;101748.25;;;1.78;100.00
61786;BME280;47692;53.714;11.372;2023-01-29T08:56:31;101747.25;;;1.73;100.00
61786;BME280;47692;53.714;11.372;2023-01-29T08:58:56;101745.38;;;1.69;100.00
61786;BME280;47692;53.714;11.372;2023-01-29T09:01:22;101745.38;;;1.69;100.00
61786;BME280;47692;53.714;11.372;2023-01-29T09:03:47;101745.56;;;1.75;100.00
61786;BME280;47692;53.714;11.372;2023-01-29T09:06:14;101746.22;;;1.68;100.00
61786;BME280;47692;53.714;11.372;2023-01-29T09:08:39;101750.66;;;1.72;100.00
61786;BME280;47692;53.714;11.372;2023-01-29T09:11:05;101743.75;;;1.71;100.00
61786;BME280;47692;53.714;11.372;2023-01-29T09:13:31;101742.19;;;1.76;100.00
61786;BME280;47692;53.714;11.372;2023-01-29T09:16:00;101749.84;;;1.73;100.00
61786;BME280;47692;53.714;11.372;2023-01-29T09:18:26;101744.56;;;1.70;100.00
61786;BME280;47692;53.714;11.372;2023-01-29T09:20:52;101743.63;;;1.68;100.00
61786;BME280;47692;53.714;11.372;2023-01-29T09:23:17;101747.09;;;1.68;100.00
61786;BME280;47692;53.714;11.372;2023-01-29T09:25:43;101744.50;;;1.67;100.00
61786;BME280;47692;53.714;11.372;2023-01-29T09:28:08;101731.81;;;1.73;100.00
61786;BME280;47692;53.714;11.372;2023-01-29T09:30:33;101735.09;;;1.69;100.00
61786;BME280;47692;53.714;11.372;2023-01-29T09:33:02;101722.03;;;1.63;100.00
61786;BME280;47692;53.714;11.372;2023-01-29T09:35:28;101716.16;;;1.67;100.00
61786;BME280;47692;53.714;11.372;2023-01-29T09:37:53;101713.34;;;1.59;100.00
61786;BME280;47692;53.714;11.372;2023-01-29T09:40:25;101714.31;;;1.63;100.00
61786;BME280;47692;53.714;11.372;2023-01-29T09:43:18;101712.66;;;1.65;100.00
61786;BME280;47692;53.714;11.372;2023-01-29T09:46:00;101699.66;;;1.60;100.00
61786;BME280;47692;53.714;11.372;2023-01-29T09:48:27;101691.06;;;1.59;100.00
61786;BME280;47692;53.714;11.372;2023-01-29T09:50:56;101685.16;;;1.64;100.00
61786;BME280;47692;53.714;11.372;2023-01-29T09:53:32;101687.84;;;1.67;100.00
61786;BME280;47692;53.714;11.372;2023-01-29T09:56:05;101674.88;;;1.64;100.00
61786;BME280;47692;53.714;11.372;2023-01-29T09:58:39;101672.34;;;1.65;100.00
61786;BME280;47692;53.714;11.372;2023-01-29T10:06:27;101659.13;;;1.83;100.00
61786;BME280;47692;53.714;11.372;2023-01-29T10:09:18;101655.63;;;1.81;100.00
61786;BME280;47692;53.714;11.372;2023-01-29T10:12:18;101658.38;;;1.87;100.00
61786;BME280;47692;53.714;11.372;2023-01-29T10:17:51;101661.72;;;1.83;100.00
61786;BME280;47692;53.714;11.372;2023-01-29T10:23:31;101652.41;;;1.88;100.00
61786;BME280;47692;53.714;11.372;2023-01-29T10:25:57;101642.94;;;1.87;100.00
61786;BME280;47692;53.714;11.372;2023-01-29T10:28:35;101637.75;;;1.86;100.00
61786;BME280;47692;53.714;11.372;2023-01-29T10:31:07;101639.44;;;1.85;100.00
61786;BME280;47692;53.714;11.372;2023-01-29T10:33:39;101636.19;;;1.92;100.00
61786;BME280;47692;53.714;11.372;2023-01-29T10:36:08;101636.03;;;1.86;100.00
61786;BME280;47692;53.714;11.372;2023-01-29T10:38:48;101628.28;;;1.85;100.00
61786;BME280;47692;53.714;11.372;2023-01-29T10:41:24;101626.69;;;1.90;100.00
61786;BME280;47692;53.714;11.372;2023-01-29T10:46:23;101621.53;;;1.90;100.00
61786;BME280;47692;53.714;11.372;2023-01-29T11:02:20;101612.03;;;1.87;100.00
61786;BME280;47692;53.714;11.372;2023-01-29T11:04:47;101612.28;;;1.97;100.00
61786;BME280;47692;53.714;11.372;2023-01-29T11:07:14;101612.19;;;1.93;100.00
61786;BME280;47692;53.714;11.372;2023-01-29T11:09:58;101602.78;;;1.94;100.00
61786;BME280;47692;53.714;11.372;2023-01-29T11:12:28;101596.69;;;1.90;100.00
61786;BME280;47692;53.714;11.372;2023-01-29T11:15:00;101596.78;;;1.95;100.00
61786;BME280;47692;53.714;11.372;2023-01-29T11:17:27;101593.25;;;1.91;100.00
61786;BME280;47692;53.714;11.372;2023-01-29T11:19:54;101591.59;;;1.93;100.00
61786;BME280;47692;53.714;11.372;2023-01-29T11:22:28;101589.91;;;1.94;100.00
61786;BME280;47692;53.714;11.372;2023-01-29T11:25:16;101591.53;;;1.90;100.00
61786;BME280;47692;53.714;11.372;2023-01-29T11:27:53;101595.00;;;1.92;100.00
61786;BME280;47692;53.714;11.372;2023-01-29T11:30:34;101585.56;;;1.93;100.00
61786;BME280;47692;53.714;11.372;2023-01-29T11:35:29;101570.97;;;1.93;100.00
61786;BME280;47692;53.714;11.372;2023-01-29T11:40:41;101559.09;;;1.99;100.00
61786;BME280;47692;53.714;11.372;2023-01-29T11:43:12;101553.94;;;1.99;100.00
61786;BME280;47692;53.714;11.372;2023-01-29T11:45:38;101545.31;;;1.97;100.00
61786;BME280;47692;53.714;11.372;2023-01-29T11:48:05;101538.50;;;1.99;100.00
61786;BME280;47692;53.714;11.372;2023-01-29T11:50:37;101542.91;;;2.03;100.00
61786;BME280;47692;53.714;11.372;2023-01-29T11:53:02;101535.09;;;2.00;100.00
61786;BME280;47692;53.714;11.372;2023-01-29T11:55:33;101535.97;;;2.00;100.00
61786;BME280;47692;53.714;11.372;2023-01-29T11:58:16;101534.97;;;1.95;100.00
61786;BME280;47692;53.714;11.372;2023-01-29T12:00:49;101523.84;;;1.98;100.00
61786;BME280;47692;53.714;11.372;2023-01-29T12:05:52;101524.81;;;2.01;100.00
61786;BME280;47692;53.714;11.372;2023-01-29T12:08:19;101511.09;;;2.02;100.00
61786;BME280;47692;53.714;11.372;2023-01-29T12:10:47;101504.34;;;2.06;100.00
61786;BME280;47692;53.714;11.372;2023-01-29T12:15:41;101507.69;;;2.02;100.00
61786;BME280;47692;53.714;11.372;2023-01-29T12:20:54;101503.41;;;2.04;100.00
61786;BME280;47692;53.714;11.372;2023-01-29T12:23:30;101499.13;;;2.03;100.00
61786;BME280;47692;53.714;11.372;2023-01-29T12:26:08;101497.44;;;2.05;100.00
61786;BME280;47692;53.714;11.372;2023-01-29T12:31:14;101500.97;;;2.10;100.00
61786;BME280;47692;53.714;11.372;2023-01-29T12:36:30;101482.94;;;2.10;100.00
61786;BME280;47692;53.714;11.372;2023-01-29T12:38:57;101478.56;;;2.06;100.00
61786;BME280;47692;53.714;11.372;2023-01-29T12:41:29;101463.09;;;2.04;100.00
61786;BME280;47692;53.714;11.372;2023-01-29T12:44:10;101460.53;;;2.06;100.00
61786;BME280;47692;53.714;11.372;2023-01-29T12:46:42;101468.34;;;2.09;100.00
61786;BME280;47692;53.714;11.372;2023-01-29T12:49:14;101463.13;;;2.06;100.00
61786;BME280;47692;53.714;11.372;2023-01-29T12:52:18;101467.47;;;2.08;100.00
61786;BME280;47692;53.714;11.372;2023-01-29T12:54:56;101459.78;;;2.10;100.00
61786;BME280;47692;53.714;11.372;2023-01-29T12:57:35;101462.34;;;2.10;100.00
61786;BME280;47692;53.714;11.372;2023-01-29T13:00:14;101458.91;;;2.09;100.00
61786;BME280;47692;53.714;11.372;2023-01-29T13:02:54;101457.25;;;2.12;100.00
61786;BME280;47692;53.714;11.372;2023-01-29T13:05:29;101451.16;;;2.08;100.00
61786;BME280;47692;53.714;11.372;2023-01-29T13:08:08;101445.13;;;2.07;100.00
61786;BME280;47692;53.714;11.372;2023-01-29T13:10:39;101444.16;;;2.04;100.00
61786;BME280;47692;53.714;11.372;2023-01-29T13:13:20;101428.72;;;2.04;100.00
61786;BME280;47692;53.714;11.372;2023-01-29T13:15:51;101437.34;;;2.06;100.00
61786;BME280;47692;53.714;11.372;2023-01-29T13:18:22;101422.72;;;2.05;100.00
61786;BME280;47692;53.714;11.372;2023-01-29T13:20:53;101411.59;;;2.06;100.00
61786;BME280;47692;53.714;11.372;2023-01-29T13:23:40;101414.16;;;2.06;100.00
61786;BME280;47692;53.714;11.372;2023-01-29T13:26:06;101404.78;;;2.08;100.00
61786;BME280;47692;53.714;11.372;2023-01-29T13:28:32;101409.00;;;2.04;100.00
61786;BME280;47692;53.714;11.372;2023-01-29T13:31:17;101404.69;;;2.05;100.00
61786;BME280;47692;53.714;11.372;2023-01-29T13:33:51;101400.31;;;2.01;100.00
61786;BME280;47692;53.714;11.372;2023-01-29T13:36:24;101401.19;;;2.01;100.00
61786;BME280;47692;53.714;11.372;2023-01-29T13:39:04;101404.63;;;2.02;100.00
61786;BME280;47692;53.714;11.372;2023-01-29T13:41:32;101399.50;;;2.02;100.00
61786;BME280;47692;53.714;11.372;2023-01-29T13:43:58;101390.94;;;2.03;100.00
61786;BME280;47692;53.714;11.372;2023-01-29T13:46:24;101396.13;;;2.06;100.00
61786;BME280;47692;53.714;11.372;2023-01-29T13:48:50;101392.56;;;1.99;100.00
61786;BME280;47692;53.714;11.372;2023-01-29T13:51:20;101378.91;;;2.03;100.00
61786;BME280;47692;53.714;11.372;2023-01-29T13:54:01;101375.38;;;2.00;100.00
61786;BME280;47692;53.714;11.372;2023-01-29T13:58:58;101362.50;;;2.00;100.00
61786;BME280;47692;53.714;11.372;2023-01-29T14:04:25;101349.72;;;2.03;100.00
61786;BME280;47692;53.714;11.372;2023-01-29T14:06:54;101359.94;;;2.00;100.00
61786;BME280;47692;53.714;11.372;2023-01-29T14:12:01;101349.63;;;2.00;100.00
61786;BME280;47692;53.714;11.372;2023-01-29T14:17:15;101335.91;;;1.99;100.00
61786;BME280;47692;53.714;11.372;2023-01-29T14:19:52;101332.53;;;2.02;100.00
61786;BME280;47692;53.714;11.372;2023-01-29T14:22:20;101331.69;;;2.03;100.00
61786;BME280;47692;53.714;11.372;2023-01-29T14:24:47;101319.63;;;2.00;100.00
61786;BME280;47692;53.714;11.372;2023-01-29T14:27:20;101312.75;;;2.01;100.00
61786;BME280;47692;53.714;11.372;2023-01-29T14:29:47;101310.16;;;2.01;100.00
61786;BME280;47692;53.714;11.372;2023-01-29T14:32:20;101311.91;;;2.02;100.00
61786;BME280;47692;53.714;11.372;2023-01-29T14:37:33;101303.34;;;2.03;100.00
61786;BME280;47692;53.714;11.372;2023-01-29T14:45:44;101290.47;;;2.03;100.00
61786;BME280;47692;53.714;11.372;2023-01-29T14:55:43;101280.22;;;2.06;100.00
61786;BME280;47692;53.714;11.372;2023-01-29T14:58:37;101273.44;;;2.09;100.00
61786;BME280;47692;53.714;11.372;2023-01-29T15:01:15;101269.06;;;2.05;100.00
61786;BME280;47692;53.714;11.372;2023-01-29T15:03:47;101260.53;;;2.08;100.00
61786;BME280;47692;53.714;11.372;2023-01-29T15:06:21;101256.22;;;2.08;100.00